Time;durP1;ratioP1;P1;durP2;ratioP2;P2;SDS_P1;SDS_P2;PMS_P1;PMS_P2;Temp;Humidity;BMP_temperature;BMP_pressure;BME280_temperature;BME280_humidity;BME280_pressure;Samples;Min_cycle;Max_cycle;Signal;HPM_P1;HPM_P2
2021/12/30 00:12:42;;;;;;;22.75;5.10;;;;;;;;;;6188644;23;20439;-92
2021/12/30 00:38:26;;;;;;;32.88;7.80;;;;;;;;;;6184390;23;20134;31
2021/12/30 01:27:53;;;;;;;47.15;7.88;;;;;;;;;;6158849;22;20061;-92
2021/12/30 01:58:56;;;;;;;23.23;6.72;;;;;;;;;;6213891;22;20024;-92
2021/12/30 02:12:08;;;;;;;27.33;6.53;;;8.50;99.90;;;;;;6211108;22;20021;-92
2021/12/30 02:28:24;;;;;;;;;;;;;;;;;;;;;
2021/12/30 03:50:17;;;;;;;39.00;9.27;;;;;;;;;;6193389;23;20024;-92
2021/12/30 04:00:11;;;;;;;44.10;10.82;;;;;;;;;;6070624;23;20058;-91
2021/12/30 04:22:09;;;;;;;40.85;9.27;;;;;;;;;;6115470;23;20033;-95
2021/12/30 04:34:27;;;;;;;41.72;9.05;;;;;;;;;;6150134;23;20025;-95
2021/12/30 04:55:48;;;;;;;40.63;11.70;;;;;;;;;;6092706;23;20081;-93
2021/12/30 04:59:09;;;;;;;37.78;9.52;;;;;;;;;;6129629;23;20041;-95
2021/12/30 05:07:34;;;;;;;70.03;12.63;;;;;;;;;;6190254;23;21702;-93
2021/12/30 05:32:21;;;;;;;41.17;13.40;;;;;;;;;;6194719;23;20446;-94
2021/12/30 05:37:52;;;;;;;58.60;16.05;;;;;;;;;;6208117;23;20442;-92
2021/12/30 05:42:52;;;;;;;59.63;16.02;;;;;;;;;;6218802;22;20031;-94
2021/12/30 05:45:19;;;;;;;49.13;14.90;;;;;;;;;;6193676;23;20019;-94
2021/12/30 06:00:03;;;;;;;35.55;12.40;;;;;;;;;;6209113;22;20024;-92
2021/12/30 06:09:16;;;;;;;28.92;12.43;;;;;;;;;;6212424;22;20028;-93
2021/12/30 06:12:38;;;;;;;38.38;12.57;;;;;;;;;;6168998;23;20099;-92
2021/12/30 06:15:05;;;;;;;29.85;12.15;;;;;;;;;;6164505;22;20021;-92
2021/12/30 06:20:21;;;;;;;41.70;12.60;;;;;;;;;;6214259;22;20025;-92
2021/12/30 06:35:36;;;;;;;36.75;12.55;;;;;;;;;;6185275;22;20024;-93
2021/12/30 06:38:03;;;;;;;38.45;15.38;;;;;;;;;;6139379;23;20438;-91
2021/12/30 06:41:26;;;;;;;38.22;16.48;;;10.50;99.90;;;;;;6168399;23;20080;-92
2021/12/30 06:46:54;;;;;;;39.85;15.25;;;;;;;;;;6212293;22;20052;-93
2021/12/30 07:06:33;;;;;;;24.52;10.27;;;;;;;;;;6189879;23;20072;-93
2021/12/30 07:16:13;;;;;;;16.05;7.22;;;;;;;;;;6212580;23;20021;-93
2021/12/30 07:36:35;;;;;;;9.02;5.20;;;;;;;;;;6196686;22;20120;-91
2021/12/30 07:39:35;;;;;;;9.10;5.13;;;;;;;;;;6165682;23;20056;-93
2021/12/30 07:42:08;;;;;;;9.55;5.78;;;;;;;;;;6155903;23;20521;-92
2021/12/30 08:01:13;;;;;;;7.13;4.90;;;;;;;;;;6206014;22;20025;-92
2021/12/30 08:03:55;;;;;;;6.78;5.28;;;;;;;;;;6139486;23;20184;-92
2021/12/30 08:06:27;;;;;;;7.72;4.55;;;;;;;;;;6136861;23;20017;-92
2021/12/30 08:08:56;;;;;;;7.78;5.13;;;;;;;;;;6136802;23;20469;-93
2021/12/30 08:11:26;;;;;;;6.53;3.53;;;;;;;;;;6137954;23;20017;-93
2021/12/30 08:14:04;;;;;;;5.72;4.30;;;;;;;;;;6131909;23;20028;-92
2021/12/30 08:16:33;;;;;;;4.07;3.67;;;;;;;;;;6105940;23;20022;-92
2021/12/30 08:19:03;;;;;;;4.75;3.38;;;;;;;;;;6106317;23;20036;-92
2021/12/30 08:21:33;;;;;;;4.88;4.30;;;;;;;;;;6131853;23;20017;-92
2021/12/30 08:24:14;;;;;;;7.10;3.40;;;;;;;;;;6106194;23;20154;-92
2021/12/30 08:26:46;;;;;;;6.15;4.10;;;;;;;;;;6106415;23;20045;-92
2021/12/30 08:29:40;;;;;;;3.95;3.10;;;;;;;;;;6153293;23;20032;-92
2021/12/30 08:32:13;;;;;;;4.30;3.67;;;;;;;;;;6167583;23;20104;-91
2021/12/30 08:34:53;;;;;;;5.43;3.92;;;;;;;;;;6191203;23;20020;-92
2021/12/30 08:41:20;;;;;;;9.68;5.03;;;;;;;;;;6126454;23;20476;-92
2021/12/30 08:44:18;;;;;;;7.88;4.97;;;;;;;;;;6110729;23;20051;-93
2021/12/30 08:49:46;;;;;;;;;;;;;;;;;;;;;
2021/12/30 08:52:59;;;;;;;12.95;4.63;;;;;;;;;;6218320;23;20039;-91
2021/12/30 08:56:01;;;;;;;8.02;4.43;;;;;;;;;;6163223;23;20463;-92
2021/12/30 08:58:47;;;;;;;6.43;4.18;;;;;;;;;;6135119;23;20072;-91
2021/12/30 09:01:13;;;;;;;6.28;3.53;;;;;;;;;;6158794;23;20021;-93
2021/12/30 09:03:40;;;;;;;7.65;4.15;;;;;;;;;;6158698;23;20050;-91
2021/12/30 09:06:09;;;;;;;7.22;3.08;;;;;;;;;;6110286;23;20018;-93
2021/12/30 09:08:47;;;;;;;13.10;3.95;;;;;;;;;;6108302;23;20101;-92
2021/12/30 09:11:13;;;;;;;6.72;3.20;;;;;;;;;;6108772;23;20024;-91
2021/12/30 09:13:40;;;;;;;7.43;3.45;;;;;;;;;;6108790;23;20056;-89
2021/12/30 09:16:07;;;;;;;8.25;2.97;;;;;;;;;;6108798;23;20025;-91
2021/12/30 09:18:34;;;;;;;11.20;4.55;;;;;;;;;;6156517;23;20048;-91
2021/12/30 09:21:00;;;;;;;12.35;4.10;;;;;;;;;;6185624;23;20024;-91
2021/12/30 09:23:26;;;;;;;12.95;4.10;;;;;;;;;;6137513;23;20039;-92
2021/12/30 09:25:55;;;;;;;11.88;3.40;;;;;;;;;;6138090;23;20088;-91
2021/12/30 09:28:21;;;;;;;23.30;4.15;;;;;;;;;;6137910;23;20487;-92
2021/12/30 09:30:47;;;;;;;11.30;4.13;;;;;;;;;;6193281;23;20019;-92
2021/12/30 09:33:16;;;;;;;7.53;3.83;;;;;;;;;;6193096;23;20055;-92
2021/12/30 09:35:47;;;;;;;8.40;4.32;;;;;;;;;;6192365;23;20027;-92
2021/12/30 09:38:14;;;;;;;13.55;3.53;;;;;;;;;;6192993;23;20016;-93
2021/12/30 09:40:40;;;;;;;16.65;3.78;;;;;;;;;;6193866;23;20024;-93
2021/12/30 09:43:09;;;;;;;17.80;4.00;;;;;;;;;;6192407;23;20017;-92
2021/12/30 09:45:37;;;;;;;9.75;4.15;;;;;;;;;;6191999;23;20019;-93
2021/12/30 09:48:06;;;;;;;13.07;3.30;;;;;;;;;;6193351;23;20016;-93
2021/12/30 09:50:34;;;;;;;14.77;3.83;;;;;;;;;;6218459;23;20012;-92
2021/12/30 09:53:00;;;;;;;14.75;4.65;;;;;;;;;;6193399;23;20463;-93
2021/12/30 09:55:27;;;;;;;11.45;3.78;;;;;;;;;;6192476;23;20354;-93
2021/12/30 09:57:53;;;;;;;11.15;3.53;;;;;;;;;;6192525;23;20020;-93
2021/12/30 10:00:20;;;;;;;13.93;3.83;;;;;;;;;;6217632;23;20092;-93
2021/12/30 10:02:47;;;;;;;16.55;3.78;;;;;;;;;;6193842;23;20021;-93
2021/12/30 10:05:14;;;;;;;21.50;4.28;;;;;;;;;;6192631;23;20520;-94
2021/12/30 10:07:41;;;;;;;17.73;4.00;;;;;;;;;;6191795;23;20095;-94
2021/12/30 10:10:30;;;;;;;14.48;4.13;;;;;;;;;;6192327;23;20013;-90
2021/12/30 10:12:57;;;;;;;13.10;3.88;;;;;;;;;;6190989;23;20052;-92
2021/12/30 10:15:26;;;;;;;21.02;3.85;;;;;;;;;;6192140;23;20044;-90
2021/12/30 10:17:57;;;;;;;14.80;4.18;;;;;;;;;;6192201;23;20331;-89
2021/12/30 10:20:27;;;;;;;13.48;4.30;;;;;;;;;;6191661;23;20036;-88
2021/12/30 10:22:55;;;;;;;6.75;2.63;;;;;;;;;;6192451;23;20035;-89
2021/12/30 10:25:24;;;;;;;21.25;4.47;;;;;;;;;;6192185;23;20020;-89
2021/12/30 10:27:51;;;;;;;30.45;4.10;;;;;;;;;;6216876;23;20023;-89
2021/12/30 10:30:34;;;;;;;16.77;4.57;;;11.60;99.90;;;;;;6191937;23;20028;-89
2021/12/30 10:33:10;;;;;;;12.65;3.25;;;;;;;;;;6217478;23;20024;-89
2021/12/30 10:35:36;;;;;;;12.77;3.95;;;;;;;;;;6192635;23;20052;-89
2021/12/30 10:38:04;;;;;;;18.48;4.32;;;;;;;;;;6217103;23;20028;-90
2021/12/30 10:40:33;;;;;;;17.52;3.88;;;;;;;;;;6191871;23;20349;-91
2021/12/30 10:43:20;;;;;;;18.95;5.13;;;11.70;99.90;;;;;;6217201;23;20071;-91
2021/12/30 10:46:07;;;;;;;16.65;4.25;;;11.70;99.90;;;;;;6191491;23;20032;-90
2021/12/30 10:48:43;;;;;;;17.17;3.75;;;11.80;99.90;;;;;;6216096;23;20455;-90
2021/12/30 10:51:11;;;;;;;19.58;4.35;;;;;;;;;;6218042;23;20016;-90
2021/12/30 10:53:37;;;;;;;17.88;4.15;;;;;;;;;;6193183;23;20024;-90
2021/12/30 10:56:31;;;;;;;18.02;4.78;;;11.70;99.90;;;;;;6216407;23;20465;-91
2021/12/30 10:59:27;;;;;;;20.70;5.27;;;11.90;99.90;;;;;;6216265;23;20020;-89
2021/12/30 11:02:17;;;;;;;21.65;5.88;;;11.80;99.90;;;;;;6216936;23;20028;-93
2021/12/30 11:04:43;;;;;;;30.13;5.53;;;;;;;;;;6217504;23;20024;-92
2021/12/30 11:07:10;;;;;;;29.63;6.90;;;;;;;;;;6191756;23;20020;-94
2021/12/30 11:09:37;;;;;;;22.40;5.65;;;;;;;;;;6217980;23;20079;-92
2021/12/30 11:12:04;;;;;;;25.10;5.80;;;;;;;;;;6213928;23;20016;-94
2021/12/30 11:14:32;;;;;;;20.58;5.57;;;;;;;;;;6217927;23;20020;-93
2021/12/30 11:16:59;;;;;;;19.25;4.70;;;;;;;;;;6192063;23;20023;-93
2021/12/30 11:19:26;;;;;;;24.17;6.63;;;;;;;;;;6216385;23;20099;-92
2021/12/30 11:21:53;;;;;;;31.45;6.35;;;;;;;;;;6213070;23;20013;-93
2021/12/30 11:24:20;;;;;;;22.95;6.55;;;;;;;;;;6213101;23;20083;-90
2021/12/30 11:26:46;;;;;;;26.92;8.30;;;;;;;;;;6211690;23;20016;-91
2021/12/30 11:29:12;;;;;;;31.15;7.32;;;;;;;;;;6189854;23;20017;-92
2021/12/30 11:31:38;;;;;;;24.15;7.18;;;;;;;;;;6191757;23;20110;-93
2021/12/30 11:34:05;;;;;;;33.33;7.80;;;;;;;;;;6191847;23;20028;-93
2021/12/30 11:36:33;;;;;;;42.95;7.72;;;;;;;;;;6192833;23;20013;-92
2021/12/30 11:39:01;;;;;;;32.30;7.13;;;;;;;;;;6217139;23;20403;-93
2021/12/30 11:41:28;;;;;;;30.30;7.95;;;;;;;;;;6217329;23;20012;-94
2021/12/30 11:43:55;;;;;;;28.17;8.13;;;;;;;;;;6191260;23;20021;-93
2021/12/30 11:46:39;;;;;;;27.42;6.28;;;;;;;;;;6192172;23;20013;-93
2021/12/30 11:49:06;;;;;;;34.10;7.22;;;;;;;;;;6216386;23;20017;-92
2021/12/30 11:51:49;;;;;;;28.48;5.97;;;;;;;;;;6185981;23;20017;-93
2021/12/30 11:54:35;;;;;;;27.98;6.85;;;;;;;;;;6212516;23;20028;-91
2021/12/30 11:57:22;;;;;;;33.47;7.45;;;12.20;99.90;;;;;;6188200;23;20027;-92
2021/12/30 11:59:48;;;;;;;28.65;7.38;;;;;;;;;;6216431;23;20020;-94
2021/12/30 12:02:26;;;;;;;28.65;8.10;;;;;;;;;;6217587;23;20092;-92
2021/12/30 12:04:53;;;;;;;23.60;6.25;;;;;;;;;;6216788;23;20066;-93
2021/12/30 12:07:19;;;;;;;26.90;5.93;;;;;;;;;;6192177;23;20016;-93
2021/12/30 12:09:45;;;;;;;29.27;6.90;;;;;;;;;;6216711;23;20454;-92
2021/12/30 12:12:13;;;;;;;28.27;6.45;;;;;;;;;;6192684;23;20020;-93
2021/12/30 12:14:42;;;;;;;21.73;4.63;;;;;;;;;;6216990;23;20016;-92
2021/12/30 12:17:08;;;;;;;19.63;4.80;;;;;;;;;;6188438;23;20028;-93
2021/12/30 12:19:45;;;;;;;30.25;6.13;;;;;;;;;;6213499;23;20013;-92
2021/12/30 12:22:17;;;;;;;31.60;7.10;;;;;;;;;;6189721;23;20013;-90
2021/12/30 12:24:44;;;;;;;29.90;7.30;;;;;;;;;;6216908;23;20020;-92
2021/12/30 12:27:20;;;;;;;31.02;6.38;;;;;;;;;;6190510;23;20016;-90
2021/12/30 12:29:48;;;;;;;27.90;6.78;;;;;;;;;;6188587;23;20021;-90
2021/12/30 12:32:34;;;;;;;28.92;6.00;;;;;;;;;;6211652;23;20414;-89
2021/12/30 12:35:04;;;;;;;27.70;5.60;;;;;;;;;;6216673;23;20474;-90
2021/12/30 12:37:33;;;;;;;32.10;5.50;;;;;;;;;;6192232;23;20346;-92
2021/12/30 12:40:02;;;;;;;25.33;7.00;;;;;;;;;;6246588;23;20024;-90
2021/12/30 12:42:52;;;;;;;29.95;6.35;;;12.00;99.90;;;;;;6221613;23;20442;-90
2021/12/30 12:45:23;;;;;;;29.42;6.70;;;;;;;;;;6221145;23;20016;-90
2021/12/30 12:48:08;;;;;;;32.70;6.63;;;;;;;;;;6219906;23;20393;-90
2021/12/30 12:50:41;;;;;;;23.40;5.18;;;;;;;;;;6245131;23;20013;-90
2021/12/30 12:53:26;;;;;;;19.00;6.78;;;;;;;;;;6244990;23;20024;-91
2021/12/30 12:55:54;;;;;;;26.63;4.88;;;;;;;;;;6217904;23;20090;-92
2021/12/30 12:58:21;;;;;;;20.15;6.57;;;;;;;;;;6218872;23;20442;-92
2021/12/30 13:00:47;;;;;;;16.25;5.65;;;;;;;;;;6221783;23;20023;-91
2021/12/30 13:03:17;;;;;;;23.50;5.80;;;;;;;;;;6221845;23;20016;-91
2021/12/30 13:05:59;;;;;;;25.63;6.35;;;;;;;;;;6245763;23;20526;-90
2021/12/30 13:08:25;;;;;;;27.17;6.15;;;;;;;;;;6219853;23;20185;-91
2021/12/30 13:10:52;;;;;;;19.90;5.45;;;;;;;;;;6245990;23;20048;-92
2021/12/30 13:13:31;;;;;;;28.80;7.30;;;;;;;;;;6220652;23;20071;-94
2021/12/30 13:15:58;;;;;;;20.00;4.72;;;;;;;;;;6220902;23;20460;-93
2021/12/30 13:18:24;;;;;;;30.50;6.85;;;;;;;;;;6245111;23;20472;-91
2021/12/30 13:20:51;;;;;;;27.63;5.70;;;;;;;;;;6246916;23;20047;-91
2021/12/30 13:23:31;;;;;;;21.05;5.28;;;12.00;99.90;;;;;;6220388;23;20016;-92
2021/12/30 13:26:03;;;;;;;26.08;7.60;;;;;;;;;;6220771;23;20020;-91
2021/12/30 13:28:29;;;;;;;25.38;4.75;;;;;;;;;;6246905;23;20020;-91
2021/12/30 13:31:25;;;;;;;17.75;5.20;;;;;;;;;;6222056;23;20027;-90
2021/12/30 13:33:56;;;;;;;26.02;6.13;;;;;;;;;;6107162;23;20052;-90
2021/12/30 13:36:22;;;;;;;18.77;5.15;;;;;;;;;;6109210;23;20036;-96
2021/12/30 13:38:48;;;;;;;23.73;5.07;;;;;;;;;;6109110;23;20025;-92
2021/12/30 13:41:16;;;;;;;17.52;4.57;;;;;;;;;;6108118;23;20032;-91
2021/12/30 13:43:44;;;;;;;26.25;5.95;;;;;;;;;;6109553;23;20013;-95
2021/12/30 13:46:10;;;;;;;22.38;6.65;;;;;;;;;;6109176;23;20033;-94
2021/12/30 13:48:41;;;;;;;26.20;5.72;;;;;;;;;;6108753;23;20033;-93
2021/12/30 13:51:11;;;;;;;21.80;5.18;;;;;;;;;;6133052;23;20017;-93
2021/12/30 13:53:39;;;;;;;27.58;6.03;;;;;;;;;;6108815;23;20021;-93
2021/12/30 13:56:05;;;;;;;19.50;6.55;;;;;;;;;;6132753;23;20505;-91
2021/12/30 13:58:34;;;;;;;27.77;5.78;;;;;;;;;;6108787;23;20558;-94
2021/12/30 14:01:05;;;;;;;26.55;6.63;;;;;;;;;;6110196;23;20021;-95
2021/12/30 14:03:33;;;;;;;18.92;6.72;;;;;;;;;;6133550;23;20017;-94
2021/12/30 14:06:05;;;;;;;18.55;5.07;;;;;;;;;;6107558;23;20521;-94
2021/12/30 14:08:31;;;;;;;23.00;6.40;;;;;;;;;;6107942;23;20022;-93
2021/12/30 14:11:00;;;;;;;20.00;6.38;;;;;;;;;;6225913;23;20016;-93
2021/12/30 14:13:32;;;;;;;28.38;6.28;;;;;;;;;;6248348;23;20462;-93
2021/12/30 14:15:59;;;;;;;33.17;6.78;;;;;;;;;;6225472;23;20067;-94
2021/12/30 14:18:30;;;;;;;18.70;6.88;;;;;;;;;;6250802;23;20017;-96
2021/12/30 14:20:56;;;;;;;23.30;5.78;;;;;;;;;;6203513;23;20012;-94
2021/12/30 14:23:33;;;;;;;26.38;5.97;;;;;;;;;;6197854;23;20457;-95
2021/12/30 14:26:19;;;;;;;37.58;9.15;;;;;;;;;;6196519;23;20044;-93
2021/12/30 14:28:53;;;;;;;21.40;6.63;;;;;;;;;;6197867;23;20461;-91
2021/12/30 14:31:21;;;;;;;28.17;6.68;;;;;;;;;;6197712;23;20030;-92
2021/12/30 14:33:47;;;;;;;21.08;5.72;;;;;;;;;;6199406;23;20511;-94
2021/12/30 14:36:17;;;;;;;25.30;6.30;;;;;;;;;;6198931;23;20018;-96
2021/12/30 14:38:45;;;;;;;30.90;7.90;;;;;;;;;;6199854;23;20012;-96
2021/12/30 14:41:21;;;;;;;29.35;6.75;;;;;;;;;;6200790;23;20016;-96
2021/12/30 14:44:07;;;;;;;28.27;5.95;;;;;;;;;;6198810;23;20019;-96
2021/12/30 14:46:33;;;;;;;22.30;6.47;;;;;;;;;;6199504;23;20070;-95
2021/12/30 14:49:01;;;;;;;25.25;6.38;;;;;;;;;;6200024;23;20052;-95
2021/12/30 14:51:33;;;;;;;26.88;5.32;;;;;;;;;;6198677;23;20046;-96
2021/12/30 14:54:01;;;;;;;21.40;6.45;;;;;;;;;;6199477;23;20012;-95
2021/12/30 14:56:27;;;;;;;26.27;5.50;;;;;;;;;;6199857;23;20020;-96
2021/12/30 14:58:53;;;;;;;27.60;5.85;;;;;;;;;;6199098;23;20039;-96
2021/12/30 15:01:20;;;;;;;27.73;7.35;;;;;;;;;;6199020;23;20020;-96
2021/12/30 15:03:46;;;;;;;18.58;5.47;;;;;;;;;;6198851;23;20016;-95
2021/12/30 15:06:12;;;;;;;27.90;4.95;;;;;;;;;;6199882;23;20434;-96
2021/12/30 15:08:38;;;;;;;22.65;5.20;;;;;;;;;;6201430;23;20492;-96
2021/12/30 15:11:04;;;;;;;25.63;5.75;;;;;;;;;;6197833;23;20438;-96
2021/12/30 15:13:30;;;;;;;26.05;5.28;;;;;;;;;;6198524;23;20020;-95
2021/12/30 15:15:56;;;;;;;26.10;5.57;;;;;;;;;;6222791;23;20016;-94
2021/12/30 15:18:22;;;;;;;18.40;4.60;;;;;;;;;;6198998;23;20047;-94
2021/12/30 15:20:49;;;;;;;15.35;4.88;;;;;;;;;;6197089;23;20012;-96
2021/12/30 15:23:17;;;;;;;16.15;5.68;;;;;;;;;;6198604;23;20024;-95
2021/12/30 15:25:44;;;;;;;20.45;6.07;;;;;;;;;;6223004;23;20040;-96
2021/12/30 15:28:10;;;;;;;27.42;5.78;;;;;;;;;;6197616;23;20016;-95
2021/12/30 15:30:36;;;;;;;24.90;4.50;;;;;;;;;;6198249;23;20016;-95
2021/12/30 15:33:03;;;;;;;18.10;6.65;;;;;;;;;;6197136;23;20078;-95
2021/12/30 15:35:30;;;;;;;17.33;3.83;;;;;;;;;;6198118;23;20517;-95
2021/12/30 15:37:57;;;;;;;16.92;5.20;;;;;;;;;;6223851;23;20094;-95
2021/12/30 15:40:24;;;;;;;26.27;6.20;;;;;;;;;;6197228;23;20070;-96
2021/12/30 15:42:51;;;;;;;14.15;4.75;;;;;;;;;;6196401;23;20016;-95
2021/12/30 15:45:17;;;;;;;19.13;5.05;;;;;;;;;;6196883;23;20102;-95
2021/12/30 15:47:45;;;;;;;12.38;4.80;;;;;;;;;;6198795;23;20016;-95
2021/12/30 15:50:13;;;;;;;23.77;4.95;;;;;;;;;;6197323;23;20027;-94
2021/12/30 15:52:39;;;;;;;13.07;4.32;;;;;;;;;;6221873;23;20012;-95
2021/12/30 15:55:06;;;;;;;21.65;4.82;;;;;;;;;;6221767;23;20016;-94
2021/12/30 15:57:33;;;;;;;18.23;4.97;;;;;;;;;;6196227;23;20020;-91
2021/12/30 15:59:59;;;;;;;17.95;4.35;;;;;;;;;;6196232;23;20012;-92
2021/12/30 16:02:25;;;;;;;16.23;4.20;;;;;;;;;;6196893;23;20071;-92
2021/12/30 16:04:52;;;;;;;24.63;5.40;;;;;;;;;;6195857;23;20099;-90
2021/12/30 16:07:18;;;;;;;20.02;4.45;;;;;;;;;;6196908;23;20090;-91
2021/12/30 16:09:44;;;;;;;15.57;5.70;;;;;;;;;;6220688;23;20024;-91
2021/12/30 16:12:10;;;;;;;16.42;5.25;;;;;;;;;;6196377;23;20062;-91
2021/12/30 16:14:36;;;;;;;26.55;6.20;;;;;;;;;;6195932;23;20016;-92
2021/12/30 16:17:07;;;;;;;30.75;6.20;;;;;;;;;;6195927;23;20016;-91
2021/12/30 16:19:33;;;;;;;18.33;4.97;;;;;;;;;;6194497;23;20337;-91
2021/12/30 16:21:59;;;;;;;20.70;4.63;;;;;;;;;;6196129;23;20070;-92
2021/12/30 16:24:25;;;;;;;18.00;5.85;;;;;;;;;;6221561;23;20016;-92
2021/12/30 16:26:51;;;;;;;13.88;5.55;;;;;;;;;;6197345;23;20023;-91
2021/12/30 16:29:17;;;;;;;17.38;5.97;;;;;;;;;;6195660;23;20365;-91
2021/12/30 16:31:43;;;;;;;16.95;4.70;;;;;;;;;;6197312;23;20078;-92
2021/12/30 16:34:09;;;;;;;18.63;5.97;;;;;;;;;;6197079;23;20056;-93
2021/12/30 16:36:36;;;;;;;22.45;6.75;;;;;;;;;;6197238;23;20016;-92
2021/12/30 16:39:03;;;;;;;23.40;5.38;;;;;;;;;;6198301;23;20012;-92
2021/12/30 16:41:29;;;;;;;20.08;5.97;;;;;;;;;;6196520;23;20501;-92
2021/12/30 16:43:58;;;;;;;26.02;8.13;;;;;;;;;;6197304;23;20047;-92
2021/12/30 16:46:25;;;;;;;22.08;6.50;;;;;;;;;;6197279;23;20021;-92
2021/12/30 16:48:51;;;;;;;16.38;4.97;;;;;;;;;;6196718;23;20020;-92
2021/12/30 16:51:18;;;;;;;22.75;6.63;;;;;;;;;;6196024;23;20047;-90
2021/12/30 16:53:44;;;;;;;21.75;6.70;;;;;;;;;;6196260;23;20019;-91
2021/12/30 16:56:10;;;;;;;25.48;6.50;;;;;;;;;;6195852;23;20016;-92
2021/12/30 16:58:37;;;;;;;26.05;7.88;;;;;;;;;;6196333;23;20386;-92
2021/12/30 17:01:04;;;;;;;25.67;8.15;;;;;;;;;;6220578;23;20016;-92
2021/12/30 17:03:30;;;;;;;27.63;7.60;;;;;;;;;;6195481;23;20106;-92
2021/12/30 17:05:56;;;;;;;24.17;7.55;;;;;;;;;;6197179;23;20018;-91
2021/12/30 17:08:27;;;;;;;35.90;9.02;;;;;;;;;;6197436;23;20585;-91
2021/12/30 17:10:53;;;;;;;29.75;8.52;;;;;;;;;;6197606;23;20062;-92
2021/12/30 17:13:19;;;;;;;38.08;8.13;;;;;;;;;;6198239;23;20055;-92
2021/12/30 17:15:45;;;;;;;30.77;7.90;;;;;;;;;;6198911;23;20049;-92
2021/12/30 17:18:11;;;;;;;33.40;8.95;;;;;;;;;;6198165;23;20020;-93
2021/12/30 17:20:38;;;;;;;23.27;8.50;;;;;;;;;;6197205;23;20020;-91
2021/12/30 17:23:06;;;;;;;32.70;8.90;;;;;;;;;;6222182;23;20477;-91
2021/12/30 17:25:32;;;;;;;20.58;7.57;;;;;;;;;;6198035;23;20012;-91
2021/12/30 17:27:59;;;;;;;30.60;8.68;;;;;;;;;;6199567;23;20067;-92
2021/12/30 17:30:26;;;;;;;28.70;9.43;;;;;;;;;;6224076;23;20013;-92
2021/12/30 17:32:52;;;;;;;32.85;8.70;;;;;;;;;;6197751;23;20016;-92
2021/12/30 17:35:18;;;;;;;21.60;8.68;;;;;;;;;;6197600;23;20016;-92
2021/12/30 17:37:45;;;;;;;27.70;7.50;;;;;;;;;;6197255;23;20019;-92
2021/12/30 17:40:13;;;;;;;31.35;8.02;;;;;;;;;;6197312;23;20020;-92
2021/12/30 17:42:40;;;;;;;27.95;8.45;;;;;;;;;;6197380;23;20016;-93
2021/12/30 17:45:07;;;;;;;21.17;7.25;;;;;;;;;;6197469;23;20016;-92
2021/12/30 17:47:33;;;;;;;21.00;7.55;;;;;;;;;;6198142;23;20013;-91
2021/12/30 17:49:59;;;;;;;20.98;6.93;;;;;;;;;;6197711;23;20071;-91
2021/12/30 17:52:25;;;;;;;21.58;8.00;;;;;;;;;;6223922;23;20018;-92
2021/12/30 17:54:51;;;;;;;30.20;8.82;;;;;;;;;;6198969;23;20020;-92
2021/12/30 17:57:18;;;;;;;26.83;8.63;;;;;;;;;;6197527;23;20099;-91
2021/12/30 17:59:44;;;;;;;19.50;7.72;;;;;;;;;;6222185;23;20023;-92
2021/12/30 18:02:11;;;;;;;24.83;8.55;;;;;;;;;;6198373;23;20330;-91
2021/12/30 18:04:37;;;;;;;30.70;10.45;;;;;;;;;;6223139;23;20031;-91
2021/12/30 18:07:04;;;;;;;29.55;8.60;;;;;;;;;;6198721;23;20019;-92
2021/12/30 18:09:30;;;;;;;30.90;9.35;;;;;;;;;;6197690;23;20024;-93
2021/12/30 18:11:56;;;;;;;20.27;7.53;;;;;;;;;;6197817;23;20016;-92
2021/12/30 18:14:22;;;;;;;31.75;8.38;;;;;;;;;;6197052;23;20466;-91
2021/12/30 18:16:48;;;;;;;24.17;7.03;;;;;;;;;;6197634;23;20023;-92
2021/12/30 18:19:15;;;;;;;16.88;6.93;;;;;;;;;;6197041;23;20028;-91
2021/12/30 18:21:41;;;;;;;29.02;8.93;;;;;;;;;;6196547;23;20043;-92
2021/12/30 18:24:10;;;;;;;20.58;7.70;;;;;;;;;;6198197;23;20078;-91
2021/12/30 18:26:36;;;;;;;25.42;8.65;;;;;;;;;;6196691;23;20049;-91
2021/12/30 18:29:05;;;;;;;28.33;7.53;;;;;;;;;;6198976;23;20016;-92
2021/12/30 18:31:31;;;;;;;29.05;9.95;;;;;;;;;;6197824;23;20020;-92
2021/12/30 18:33:57;;;;;;;17.40;7.20;;;;;;;;;;6197347;23;20024;-92
2021/12/30 18:36:23;;;;;;;28.50;7.55;;;;;;;;;;6197800;23;20024;-92
2021/12/30 18:38:49;;;;;;;21.60;9.55;;;;;;;;;;6198464;23;20012;-92
2021/12/30 18:41:15;;;;;;;24.33;7.90;;;;;;;;;;6196773;23;20020;-92
2021/12/30 18:43:43;;;;;;;25.25;8.10;;;;;;;;;;6197521;23;20106;-92
2021/12/30 18:46:12;;;;;;;29.55;9.75;;;;;;;;;;6222998;23;20020;-92
2021/12/30 18:48:39;;;;;;;27.15;8.95;;;;;;;;;;6197192;23;20063;-91
2021/12/30 18:51:05;;;;;;;23.73;7.55;;;;;;;;;;6196610;23;20023;-92
2021/12/30 18:53:36;;;;;;;27.10;8.07;;;;;;;;;;6197671;23;20461;-92
2021/12/30 18:56:06;;;;;;;22.50;9.95;;;;;;;;;;6196908;23;20023;-92
2021/12/30 18:58:33;;;;;;;32.35;9.63;;;;;;;;;;6197611;23;20012;-92
2021/12/30 19:01:02;;;;;;;30.92;9.13;;;;;;;;;;6196252;23;20472;-92
2021/12/30 19:03:31;;;;;;;28.92;8.45;;;;;;;;;;6196586;23;20382;-91
2021/12/30 19:05:57;;;;;;;19.00;8.77;;;;;;;;;;6196315;23;20022;-92
2021/12/30 19:08:23;;;;;;;20.67;8.23;;;;;;;;;;6195513;23;20020;-92
2021/12/30 19:10:50;;;;;;;20.52;8.13;;;;;;;;;;6197705;23;20016;-92
2021/12/30 19:13:17;;;;;;;40.45;9.75;;;;;;;;;;6197302;23;20460;-91
2021/12/30 19:15:49;;;;;;;29.48;10.48;;;;;;;;;;6196682;23;20019;-91
2021/12/30 19:18:16;;;;;;;29.77;8.07;;;;;;;;;;6196395;23;20358;-91
2021/12/30 19:20:43;;;;;;;28.15;8.68;;;;;;;;;;6197062;23;20050;-91
2021/12/30 19:23:10;;;;;;;37.72;9.50;;;;;;;;;;6196682;23;20024;-92
2021/12/30 19:25:36;;;;;;;26.63;9.63;;;;;;;;;;6196825;23;20460;-92
2021/12/30 19:28:03;;;;;;;21.95;7.75;;;;;;;;;;6195616;23;20016;-93
2021/12/30 19:30:29;;;;;;;22.63;7.80;;;;;;;;;;6196366;23;20020;-91
2021/12/30 19:32:56;;;;;;;24.38;7.72;;;;;;;;;;6197420;23;20051;-92
2021/12/30 19:35:22;;;;;;;35.25;8.43;;;;;;;;;;6196252;23;20527;-92
2021/12/30 19:37:48;;;;;;;25.70;7.65;;;;;;;;;;6196310;23;20012;-92
2021/12/30 19:40:16;;;;;;;24.40;6.70;;;;;;;;;;6197167;23;20020;-92
2021/12/30 19:42:42;;;;;;;22.15;5.88;;;;;;;;;;6197418;23;20012;-93
2021/12/30 19:45:10;;;;;;;25.75;7.05;;;;;;;;;;6197867;23;20019;-93
2021/12/30 19:47:36;;;;;;;21.95;7.32;;;;;;;;;;6196223;23;20434;-92
2021/12/30 19:50:03;;;;;;;22.50;6.72;;;;;;;;;;6196109;23;20063;-91
2021/12/30 19:52:29;;;;;;;12.80;4.13;;;;;;;;;;6197304;23;20461;-91
2021/12/30 19:54:56;;;;;;;17.88;6.30;;;;;;;;;;6197713;23;20016;-93
2021/12/30 19:57:22;;;;;;;22.40;5.40;;;;;;;;;;6196763;23;20147;-92
2021/12/30 19:59:48;;;;;;;23.42;5.95;;;;;;;;;;6221389;23;20016;-91
2021/12/30 20:02:15;;;;;;;18.67;5.47;;;;;;;;;;6195960;23;20450;-91
2021/12/30 20:04:41;;;;;;;22.85;6.03;;;;;;;;;;6195992;23;20022;-93
2021/12/30 20:07:07;;;;;;;18.00;5.35;;;;;;;;;;6196756;23;20085;-92
2021/12/30 20:09:33;;;;;;;20.00;5.43;;;;;;;;;;6196163;23;20023;-93
2021/12/30 20:11:59;;;;;;;29.48;7.50;;;;;;;;;;6195613;23;20499;-92
2021/12/30 20:14:26;;;;;;;17.80;6.05;;;;;;;;;;6196345;23;20020;-90
2021/12/30 20:16:52;;;;;;;25.23;7.07;;;;;;;;;;6196257;23;20027;-91
2021/12/30 20:19:20;;;;;;;19.98;5.63;;;;;;;;;;6196270;23;20023;-92
2021/12/30 20:21:46;;;;;;;26.70;5.85;;;;;;;;;;6195938;23;20062;-92
2021/12/30 20:24:12;;;;;;;15.52;5.57;;;;;;;;;;6196124;23;20016;-93
2021/12/30 20:26:38;;;;;;;24.20;5.45;;;;;;;;;;6196805;23;20023;-92
2021/12/30 20:29:06;;;;;;;16.67;5.18;;;;;;;;;;6196293;23;20016;-93
2021/12/30 20:31:33;;;;;;;28.40;5.95;;;;;;;;;;6196483;23;20091;-92
2021/12/30 20:34:02;;;;;;;21.90;5.93;;;;;;;;;;6196418;23;20453;-92
2021/12/30 20:36:28;;;;;;;23.83;4.50;;;;;;;;;;6196086;23;20012;-93
2021/12/30 20:38:55;;;;;;;15.15;5.47;;;;;;;;;;6196512;23;20016;-92
2021/12/30 20:41:22;;;;;;;24.90;5.60;;;;;;;;;;6171209;23;20454;-92
2021/12/30 20:43:48;;;;;;;21.00;5.78;;;;;;;;;;6195761;23;20422;-92
2021/12/30 20:46:14;;;;;;;21.50;5.25;;;;;;;;;;6196256;23;20012;-92
2021/12/30 20:48:41;;;;;;;17.13;5.07;;;;;;;;;;6197125;23;20016;-92
2021/12/30 20:51:07;;;;;;;20.83;5.10;;;;;;;;;;6196141;23;20489;-92
2021/12/30 20:53:33;;;;;;;17.08;4.68;;;;;;;;;;6195630;23;20146;-92
2021/12/30 20:56:00;;;;;;;13.93;4.75;;;;;;;;;;6197448;23;20095;-92
2021/12/30 20:58:27;;;;;;;18.25;4.63;;;;;;;;;;6196694;23;20020;-92
2021/12/30 21:00:53;;;;;;;15.23;4.50;;;;;;;;;;6196040;23;20018;-92
2021/12/30 21:03:19;;;;;;;13.02;4.80;;;;;;;;;;6196411;23;20020;-93
2021/12/30 21:05:46;;;;;;;22.08;4.60;;;;;;;;;;6222723;23;20434;-93
2021/12/30 21:08:18;;;;;;;16.60;4.25;;;;;;;;;;6196592;23;20023;-92
2021/12/30 21:10:46;;;;;;;15.85;5.35;;;;;;;;;;6221333;23;20012;-92
2021/12/30 21:13:12;;;;;;;14.05;3.67;;;;;;;;;;6196217;23;20099;-93
2021/12/30 21:15:40;;;;;;;11.73;3.85;;;;;;;;;;6195457;23;20023;-91
2021/12/30 21:18:07;;;;;;;20.55;5.03;;;;;;;;;;6197660;23;20020;-92
2021/12/30 21:20:34;;;;;;;13.65;3.75;;;;;;;;;;6196008;23;20434;-92
2021/12/30 21:23:00;;;;;;;15.05;4.43;;;;;;;;;;6196918;23;20024;-92
2021/12/30 21:25:26;;;;;;;9.75;4.32;;;;;;;;;;6195777;23;20013;-91
2021/12/30 21:27:55;;;;;;;17.23;5.15;;;;;;;;;;6195797;23;20012;-92
2021/12/30 21:30:22;;;;;;;16.73;3.72;;;;;;;;;;6195659;23;20022;-92